sensor_id;sensor_type;location;lat;lon;timestamp;temperature;humidity
10678;DHT22;5387;48.722;9.110;2023-04-01T00:01:40;7.40;99.90
10678;DHT22;5387;48.722;9.110;2023-04-01T00:04:08;7.40;99.90
10678;DHT22;5387;48.722;9.110;2023-04-01T00:06:35;7.50;99.90
10678;DHT22;5387;48.722;9.110;2023-04-01T00:09:02;7.50;99.90
10678;DHT22;5387;48.722;9.110;2023-04-01T00:11:29;7.50;99.90
10678;DHT22;5387;48.722;9.110;2023-04-01T00:13:56;7.50;99.90
10678;DHT22;5387;48.722;9.110;2023-04-01T00:16:22;7.40;99.90
10678;DHT22;5387;48.722;9.110;2023-04-01T00:18:50;7.50;99.90
10678;DHT22;5387;48.722;9.110;2023-04-01T00:21:20;7.50;99.90
10678;DHT22;5387;48.722;9.110;2023-04-01T00:23:47;7.50;99.90
10678;DHT22;5387;48.722;9.110;2023-04-01T00:26:14;7.50;99.90
10678;DHT22;5387;48.722;9.110;2023-04-01T00:28:44;7.40;99.90
10678;DHT22;5387;48.722;9.110;2023-04-01T00:31:11;7.40;99.90
10678;DHT22;5387;48.722;9.110;2023-04-01T00:33:39;7.40;99.90
10678;DHT22;5387;48.722;9.110;2023-04-01T00:36:08;7.40;99.90
10678;DHT22;5387;48.722;9.110;2023-04-01T00:38:37;7.40;99.90
10678;DHT22;5387;48.722;9.110;2023-04-01T00:41:05;7.40;99.90
10678;DHT22;5387;48.722;9.110;2023-04-01T00:43:32;7.50;99.90
10678;DHT22;5387;48.722;9.110;2023-04-01T00:45:59;7.50;99.90
10678;DHT22;5387;48.722;9.110;2023-04-01T00:48:28;7.50;99.90
10678;DHT22;5387;48.722;9.110;2023-04-01T00:50:59;7.40;99.90
10678;DHT22;5387;48.722;9.110;2023-04-01T00:53:28;7.40;99.90
10678;DHT22;5387;48.722;9.110;2023-04-01T00:56:01;7.40;99.90
10678;DHT22;5387;48.722;9.110;2023-04-01T00:58:32;7.40;99.90
10678;DHT22;5387;48.722;9.110;2023-04-01T01:01:00;7.50;99.90
10678;DHT22;5387;48.722;9.110;2023-04-01T01:03:27;7.40;99.90
10678;DHT22;5387;48.722;9.110;2023-04-01T01:06:11;7.40;99.90
10678;DHT22;5387;48.722;9.110;2023-04-01T01:09:13;7.30;99.90
10678;DHT22;5387;48.722;9.110;2023-04-01T01:11:50;7.20;99.90
10678;DHT22;5387;48.722;9.110;2023-04-01T01:14:29;7.10;99.90
10678;DHT22;5387;48.722;9.110;2023-04-01T01:17:04;7.20;99.90
10678;DHT22;5387;48.722;9.110;2023-04-01T01:19:57;7.20;99.90
10678;DHT22;5387;48.722;9.110;2023-04-01T01:22:46;7.20;99.90
10678;DHT22;5387;48.722;9.110;2023-04-01T01:25:29;7.20;99.90
10678;DHT22;5387;48.722;9.110;2023-04-01T01:28:11;7.10;99.90
10678;DHT22;5387;48.722;9.110;2023-04-01T01:30:46;7.10;99.90
10678;DHT22;5387;48.722;9.110;2023-04-01T01:33:43;7.10;99.90
10678;DHT22;5387;48.722;9.110;2023-04-01T01:36:15;7.20;99.90
10678;DHT22;5387;48.722;9.110;2023-04-01T01:38:44;7.10;99.90
10678;DHT22;5387;48.722;9.110;2023-04-01T01:41:12;7.10;99.90
10678;DHT22;5387;48.722;9.110;2023-04-01T01:43:42;7.20;99.90
10678;DHT22;5387;48.722;9.110;2023-04-01T01:46:11;7.20;99.90
10678;DHT22;5387;48.722;9.110;2023-04-01T01:48:40;7.20;99.90
10678;DHT22;5387;48.722;9.110;2023-04-01T01:51:08;7.20;99.90
10678;DHT22;5387;48.722;9.110;2023-04-01T01:53:36;7.20;99.90
10678;DHT22;5387;48.722;9.110;2023-04-01T01:56:04;7.10;99.90
10678;DHT22;5387;48.722;9.110;2023-04-01T01:58:33;7.10;99.90
10678;DHT22;5387;48.722;9.110;2023-04-01T02:01:07;7.10;99.90
10678;DHT22;5387;48.722;9.110;2023-04-01T02:03:36;7.00;99.90
10678;DHT22;5387;48.722;9.110;2023-04-01T02:06:07;7.00;99.90
10678;DHT22;5387;48.722;9.110;2023-04-01T02:08:39;7.00;99.90
10678;DHT22;5387;48.722;9.110;2023-04-01T02:11:09;7.00;99.90
10678;DHT22;5387;48.722;9.110;2023-04-01T02:13:40;7.00;99.90
10678;DHT22;5387;48.722;9.110;2023-04-01T02:16:13;7.00;99.90
10678;DHT22;5387;48.722;9.110;2023-04-01T02:18:43;7.00;99.90
10678;DHT22;5387;48.722;9.110;2023-04-01T02:21:11;7.00;99.90
10678;DHT22;5387;48.722;9.110;2023-04-01T02:23:40;6.90;99.90
10678;DHT22;5387;48.722;9.110;2023-04-01T02:26:08;6.90;99.90
10678;DHT22;5387;48.722;9.110;2023-04-01T02:28:38;6.90;99.90
10678;DHT22;5387;48.722;9.110;2023-04-01T02:31:06;6.90;99.90
10678;DHT22;5387;48.722;9.110;2023-04-01T02:33:34;7.00;99.90
10678;DHT22;5387;48.722;9.110;2023-04-01T02:36:01;6.90;99.90
10678;DHT22;5387;48.722;9.110;2023-04-01T02:38:28;7.00;99.90
10678;DHT22;5387;48.722;9.110;2023-04-01T02:40:59;7.00;99.90
10678;DHT22;5387;48.722;9.110;2023-04-01T02:43:27;6.90;99.90
10678;DHT22;5387;48.722;9.110;2023-04-01T02:45:54;6.90;99.90
10678;DHT22;5387;48.722;9.110;2023-04-01T02:48:21;6.90;99.90
10678;DHT22;5387;48.722;9.110;2023-04-01T02:50:48;6.90;99.90
10678;DHT22;5387;48.722;9.110;2023-04-01T02:53:14;6.90;99.90
10678;DHT22;5387;48.722;9.110;2023-04-01T02:55:41;6.80;99.90
10678;DHT22;5387;48.722;9.110;2023-04-01T02:58:09;6.90;99.90
10678;DHT22;5387;48.722;9.110;2023-04-01T03:00:36;6.80;99.90
10678;DHT22;5387;48.722;9.110;2023-04-01T03:03:03;6.90;99.90
10678;DHT22;5387;48.722;9.110;2023-04-01T03:05:30;6.80;99.90
10678;DHT22;5387;48.722;9.110;2023-04-01T03:07:57;6.80;99.90
10678;DHT22;5387;48.722;9.110;2023-04-01T03:10:24;6.90;99.90
10678;DHT22;5387;48.722;9.110;2023-04-01T03:12:51;6.80;99.90
10678;DHT22;5387;48.722;9.110;2023-04-01T03:15:19;6.80;99.90
10678;DHT22;5387;48.722;9.110;2023-04-01T03:17:45;6.90;99.90
10678;DHT22;5387;48.722;9.110;2023-04-01T03:20:13;6.90;99.90
10678;DHT22;5387;48.722;9.110;2023-04-01T03:22:40;6.90;99.90
10678;DHT22;5387;48.722;9.110;2023-04-01T03:25:08;6.80;99.90
10678;DHT22;5387;48.722;9.110;2023-04-01T03:27:35;6.90;99.90
10678;DHT22;5387;48.722;9.110;2023-04-01T03:30:02;6.80;99.90
10678;DHT22;5387;48.722;9.110;2023-04-01T03:32:30;6.80;99.90
10678;DHT22;5387;48.722;9.110;2023-04-01T03:34:57;6.80;99.90
10678;DHT22;5387;48.722;9.110;2023-04-01T03:37:24;7.00;99.90
10678;DHT22;5387;48.722;9.110;2023-04-01T03:39:51;6.90;99.90
10678;DHT22;5387;48.722;9.110;2023-04-01T03:42:18;6.90;99.90
10678;DHT22;5387;48.722;9.110;2023-04-01T03:44:45;6.90;99.90
10678;DHT22;5387;48.722;9.110;2023-04-01T03:47:12;6.90;99.90
10678;DHT22;5387;48.722;9.110;2023-04-01T03:49:40;6.80;99.90
10678;DHT22;5387;48.722;9.110;2023-04-01T03:52:09;6.80;99.90
10678;DHT22;5387;48.722;9.110;2023-04-01T03:54:36;6.80;99.90
10678;DHT22;5387;48.722;9.110;2023-04-01T03:57:03;6.80;99.90
10678;DHT22;5387;48.722;9.110;2023-04-01T03:59:29;6.70;99.90
10678;DHT22;5387;48.722;9.110;2023-04-01T04:01:56;6.70;99.90
10678;DHT22;5387;48.722;9.110;2023-04-01T04:04:23;6.70;99.90
10678;DHT22;5387;48.722;9.110;2023-04-01T04:06:51;6.60;99.90
10678;DHT22;5387;48.722;9.110;2023-04-01T04:09:18;6.50;99.90
10678;DHT22;5387;48.722;9.110;2023-04-01T04:11:45;6.50;99.90
10678;DHT22;5387;48.722;9.110;2023-04-01T04:14:11;6.50;99.90
10678;DHT22;5387;48.722;9.110;2023-04-01T04:16:38;6.40;99.90
10678;DHT22;5387;48.722;9.110;2023-04-01T04:19:05;6.50;99.90
10678;DHT22;5387;48.722;9.110;2023-04-01T04:21:32;6.50;99.90
10678;DHT22;5387;48.722;9.110;2023-04-01T04:24:01;6.50;99.90
10678;DHT22;5387;48.722;9.110;2023-04-01T04:26:27;6.40;99.90
10678;DHT22;5387;48.722;9.110;2023-04-01T04:28:55;6.40;99.90
10678;DHT22;5387;48.722;9.110;2023-04-01T04:31:23;6.50;99.90
10678;DHT22;5387;48.722;9.110;2023-04-01T04:33:50;6.30;99.90
10678;DHT22;5387;48.722;9.110;2023-04-01T04:36:17;6.30;99.90
10678;DHT22;5387;48.722;9.110;2023-04-01T04:38:44;6.30;99.90
10678;DHT22;5387;48.722;9.110;2023-04-01T04:41:13;6.20;99.90
10678;DHT22;5387;48.722;9.110;2023-04-01T04:43:40;6.20;99.90
10678;DHT22;5387;48.722;9.110;2023-04-01T04:46:07;6.20;99.90
10678;DHT22;5387;48.722;9.110;2023-04-01T04:48:35;6.30;99.90
10678;DHT22;5387;48.722;9.110;2023-04-01T04:51:02;6.30;99.90
10678;DHT22;5387;48.722;9.110;2023-04-01T04:53:29;6.30;99.90
10678;DHT22;5387;48.722;9.110;2023-04-01T04:55:56;6.30;99.90
10678;DHT22;5387;48.722;9.110;2023-04-01T04:58:24;6.30;99.90
10678;DHT22;5387;48.722;9.110;2023-04-01T05:00:51;6.20;99.90
10678;DHT22;5387;48.722;9.110;2023-04-01T05:03:18;6.30;99.90
10678;DHT22;5387;48.722;9.110;2023-04-01T05:05:49;6.30;99.90
10678;DHT22;5387;48.722;9.110;2023-04-01T05:08:16;6.40;99.90
10678;DHT22;5387;48.722;9.110;2023-04-01T05:10:44;6.50;99.90
10678;DHT22;5387;48.722;9.110;2023-04-01T05:13:11;6.60;99.90
10678;DHT22;5387;48.722;9.110;2023-04-01T05:15:40;6.70;99.90
10678;DHT22;5387;48.722;9.110;2023-04-01T05:18:07;6.80;99.90
10678;DHT22;5387;48.722;9.110;2023-04-01T05:20:34;6.80;99.90
10678;DHT22;5387;48.722;9.110;2023-04-01T05:23:00;6.70;99.90
10678;DHT22;5387;48.722;9.110;2023-04-01T05:25:28;6.90;99.90
10678;DHT22;5387;48.722;9.110;2023-04-01T05:27:54;6.90;99.90
10678;DHT22;5387;48.722;9.110;2023-04-01T05:30:21;7.00;99.90
10678;DHT22;5387;48.722;9.110;2023-04-01T05:32:49;7.00;99.90
10678;DHT22;5387;48.722;9.110;2023-04-01T05:35:16;7.10;99.90
10678;DHT22;5387;48.722;9.110;2023-04-01T05:37:43;7.10;99.90
10678;DHT22;5387;48.722;9.110;2023-04-01T05:40:10;7.30;99.90
10678;DHT22;5387;48.722;9.110;2023-04-01T05:42:37;7.30;99.90
10678;DHT22;5387;48.722;9.110;2023-04-01T05:45:05;7.30;99.90
10678;DHT22;5387;48.722;9.110;2023-04-01T05:47:32;7.30;99.90
10678;DHT22;5387;48.722;9.110;2023-04-01T05:50:00;7.30;99.90
10678;DHT22;5387;48.722;9.110;2023-04-01T05:52:27;7.40;99.90
10678;DHT22;5387;48.722;9.110;2023-04-01T05:54:54;7.30;99.90
10678;DHT22;5387;48.722;9.110;2023-04-01T05:57:20;7.40;99.90
10678;DHT22;5387;48.722;9.110;2023-04-01T05:59:47;7.50;99.90
10678;DHT22;5387;48.722;9.110;2023-04-01T06:02:16;7.60;99.90
10678;DHT22;5387;48.722;9.110;2023-04-01T06:04:43;7.60;99.90
10678;DHT22;5387;48.722;9.110;2023-04-01T06:07:12;7.70;99.90
10678;DHT22;5387;48.722;9.110;2023-04-01T06:09:40;7.70;99.90
10678;DHT22;5387;48.722;9.110;2023-04-01T06:12:21;7.70;99.90
10678;DHT22;5387;48.722;9.110;2023-04-01T06:14:55;7.80;99.90
10678;DHT22;5387;48.722;9.110;2023-04-01T06:17:30;7.80;99.90
10678;DHT22;5387;48.722;9.110;2023-04-01T06:20:10;7.90;99.90
10678;DHT22;5387;48.722;9.110;2023-04-01T06:23:01;7.90;99.90
10678;DHT22;5387;48.722;9.110;2023-04-01T06:25:41;7.90;99.90
10678;DHT22;5387;48.722;9.110;2023-04-01T06:28:38;8.00;99.90
10678;DHT22;5387;48.722;9.110;2023-04-01T06:31:18;8.00;99.90
10678;DHT22;5387;48.722;9.110;2023-04-01T06:34:10;8.00;99.90
10678;DHT22;5387;48.722;9.110;2023-04-01T06:36:59;7.90;99.90
10678;DHT22;5387;48.722;9.110;2023-04-01T06:39:42;8.00;99.90
10678;DHT22;5387;48.722;9.110;2023-04-01T06:42:31;7.90;99.90
10678;DHT22;5387;48.722;9.110;2023-04-01T06:45:12;8.00;99.90
10678;DHT22;5387;48.722;9.110;2023-04-01T06:47:52;8.20;99.90
10678;DHT22;5387;48.722;9.110;2023-04-01T06:50:24;8.10;99.90
10678;DHT22;5387;48.722;9.110;2023-04-01T06:53:00;8.10;99.90
10678;DHT22;5387;48.722;9.110;2023-04-01T06:55:36;8.20;99.90
10678;DHT22;5387;48.722;9.110;2023-04-01T06:58:11;8.20;99.90
10678;DHT22;5387;48.722;9.110;2023-04-01T07:00:43;8.10;99.90
10678;DHT22;5387;48.722;9.110;2023-04-01T07:03:18;8.10;99.90
10678;DHT22;5387;48.722;9.110;2023-04-01T07:05:46;8.10;99.90
10678;DHT22;5387;48.722;9.110;2023-04-01T07:08:18;8.00;99.90
10678;DHT22;5387;48.722;9.110;2023-04-01T07:10:50;8.20;99.90
10678;DHT22;5387;48.722;9.110;2023-04-01T07:13:22;8.20;99.90
10678;DHT22;5387;48.722;9.110;2023-04-01T07:16:07;8.20;99.90
10678;DHT22;5387;48.722;9.110;2023-04-01T07:18:39;8.30;99.90
10678;DHT22;5387;48.722;9.110;2023-04-01T07:21:12;8.40;99.90
10678;DHT22;5387;48.722;9.110;2023-04-01T07:23:45;8.30;99.90
10678;DHT22;5387;48.722;9.110;2023-04-01T07:26:18;8.10;99.90
10678;DHT22;5387;48.722;9.110;2023-04-01T07:28:46;8.30;99.90
10678;DHT22;5387;48.722;9.110;2023-04-01T07:31:20;8.20;99.90
10678;DHT22;5387;48.722;9.110;2023-04-01T07:33:59;8.20;99.90
10678;DHT22;5387;48.722;9.110;2023-04-01T07:36:33;8.20;99.90
10678;DHT22;5387;48.722;9.110;2023-04-01T07:39:10;8.30;99.90
10678;DHT22;5387;48.722;9.110;2023-04-01T07:41:47;8.40;99.90
10678;DHT22;5387;48.722;9.110;2023-04-01T07:44:20;8.30;99.90
10678;DHT22;5387;48.722;9.110;2023-04-01T07:47:11;8.40;99.90
10678;DHT22;5387;48.722;9.110;2023-04-01T07:49:49;8.30;99.90
10678;DHT22;5387;48.722;9.110;2023-04-01T07:52:23;8.50;99.90
10678;DHT22;5387;48.722;9.110;2023-04-01T07:54:56;8.60;99.90
10678;DHT22;5387;48.722;9.110;2023-04-01T07:57:34;8.70;99.90
10678;DHT22;5387;48.722;9.110;2023-04-01T08:00:06;8.80;99.90
10678;DHT22;5387;48.722;9.110;2023-04-01T08:02:45;8.80;99.90
10678;DHT22;5387;48.722;9.110;2023-04-01T08:05:19;9.00;99.90
10678;DHT22;5387;48.722;9.110;2023-04-01T08:07:54;8.70;99.90
10678;DHT22;5387;48.722;9.110;2023-04-01T08:10:30;8.90;99.90
10678;DHT22;5387;48.722;9.110;2023-04-01T08:13:08;9.00;99.90
10678;DHT22;5387;48.722;9.110;2023-04-01T08:15:42;9.10;99.90
10678;DHT22;5387;48.722;9.110;2023-04-01T08:18:20;9.00;99.90
10678;DHT22;5387;48.722;9.110;2023-04-01T08:20:57;8.90;99.90
10678;DHT22;5387;48.722;9.110;2023-04-01T08:23:27;8.90;99.90
10678;DHT22;5387;48.722;9.110;2023-04-01T08:26:00;9.00;99.90
10678;DHT22;5387;48.722;9.110;2023-04-01T08:28:32;9.10;99.90
10678;DHT22;5387;48.722;9.110;2023-04-01T08:31:04;9.00;99.90
10678;DHT22;5387;48.722;9.110;2023-04-01T08:33:32;8.80;99.90
10678;DHT22;5387;48.722;9.110;2023-04-01T08:36:03;8.70;99.90
10678;DHT22;5387;48.722;9.110;2023-04-01T08:38:36;8.60;99.90
10678;DHT22;5387;48.722;9.110;2023-04-01T08:41:16;8.50;99.90
10678;DHT22;5387;48.722;9.110;2023-04-01T08:44:04;8.30;99.90
10678;DHT22;5387;48.722;9.110;2023-04-01T08:49:56;7.90;99.90
10678;DHT22;5387;48.722;9.110;2023-04-01T08:52:34;7.70;99.90
10678;DHT22;5387;48.722;9.110;2023-04-01T08:55:27;7.60;99.90
10678;DHT22;5387;48.722;9.110;2023-04-01T08:58:07;7.50;99.90
10678;DHT22;5387;48.722;9.110;2023-04-01T09:00:40;7.50;99.90
10678;DHT22;5387;48.722;9.110;2023-04-01T09:09:35;7.70;99.90
10678;DHT22;5387;48.722;9.110;2023-04-01T09:12:30;7.90;99.90
10678;DHT22;5387;48.722;9.110;2023-04-01T09:15:17;8.10;99.90
10678;DHT22;5387;48.722;9.110;2023-04-01T09:18:11;8.10;99.90
10678;DHT22;5387;48.722;9.110;2023-04-01T09:20:58;8.40;99.90
10678;DHT22;5387;48.722;9.110;2023-04-01T09:23:55;8.40;99.90
10678;DHT22;5387;48.722;9.110;2023-04-01T09:26:58;8.60;99.90
10678;DHT22;5387;48.722;9.110;2023-04-01T09:29:44;9.10;99.90
10678;DHT22;5387;48.722;9.110;2023-04-01T09:32:26;9.30;99.90
10678;DHT22;5387;48.722;9.110;2023-04-01T09:35:02;9.50;99.90
10678;DHT22;5387;48.722;9.110;2023-04-01T09:37:47;9.10;99.90
10678;DHT22;5387;48.722;9.110;2023-04-01T09:40:18;8.80;99.90
10678;DHT22;5387;48.722;9.110;2023-04-01T09:43:04;8.90;99.90
10678;DHT22;5387;48.722;9.110;2023-04-01T09:45:41;9.00;99.90
10678;DHT22;5387;48.722;9.110;2023-04-01T09:48:16;9.00;99.90
10678;DHT22;5387;48.722;9.110;2023-04-01T09:50:52;8.80;99.90
10678;DHT22;5387;48.722;9.110;2023-04-01T09:53:30;8.80;99.90
10678;DHT22;5387;48.722;9.110;2023-04-01T09:56:30;8.70;99.90
10678;DHT22;5387;48.722;9.110;2023-04-01T10:05:52;8.70;99.90
10678;DHT22;5387;48.722;9.110;2023-04-01T10:09:05;8.70;99.90
10678;DHT22;5387;48.722;9.110;2023-04-01T10:15:00;8.80;99.90
10678;DHT22;5387;48.722;9.110;2023-04-01T10:17:52;9.00;99.90
10678;DHT22;5387;48.722;9.110;2023-04-01T10:20:57;9.00;99.90
10678;DHT22;5387;48.722;9.110;2023-04-01T10:24:00;9.10;99.90
10678;DHT22;5387;48.722;9.110;2023-04-01T10:26:55;9.20;99.90
10678;DHT22;5387;48.722;9.110;2023-04-01T10:29:47;9.30;99.90
10678;DHT22;5387;48.722;9.110;2023-04-01T10:32:51;9.60;99.90
10678;DHT22;5387;48.722;9.110;2023-04-01T10:35:50;9.80;99.90
10678;DHT22;5387;48.722;9.110;2023-04-01T10:38:54;9.70;99.90
10678;DHT22;5387;48.722;9.110;2023-04-01T10:41:53;9.80;99.90
10678;DHT22;5387;48.722;9.110;2023-04-01T10:44:45;9.90;99.90
10678;DHT22;5387;48.722;9.110;2023-04-01T10:47:53;10.10;99.90
10678;DHT22;5387;48.722;9.110;2023-04-01T10:50:30;10.40;99.90
10678;DHT22;5387;48.722;9.110;2023-04-01T10:53:32;10.20;99.90
10678;DHT22;5387;48.722;9.110;2023-04-01T10:56:20;10.30;99.90
10678;DHT22;5387;48.722;9.110;2023-04-01T10:59:07;10.30;99.90
10678;DHT22;5387;48.722;9.110;2023-04-01T11:08:11;9.90;99.90
10678;DHT22;5387;48.722;9.110;2023-04-01T11:14:26;9.90;99.90
10678;DHT22;5387;48.722;9.110;2023-04-01T11:20:33;9.60;99.90
10678;DHT22;5387;48.722;9.110;2023-04-01T11:23:22;9.70;99.90
10678;DHT22;5387;48.722;9.110;2023-04-01T11:26:01;9.80;99.90
10678;DHT22;5387;48.722;9.110;2023-04-01T11:31:37;10.00;99.90
10678;DHT22;5387;48.722;9.110;2023-04-01T11:34:27;10.40;99.90
10678;DHT22;5387;48.722;9.110;2023-04-01T11:37:06;10.40;99.90
10678;DHT22;5387;48.722;9.110;2023-04-01T11:39:58;10.10;99.90
10678;DHT22;5387;48.722;9.110;2023-04-01T11:42:34;10.10;99.90
10678;DHT22;5387;48.722;9.110;2023-04-01T11:45:18;10.30;99.90
10678;DHT22;5387;48.722;9.110;2023-04-01T11:47:58;10.40;99.90
10678;DHT22;5387;48.722;9.110;2023-04-01T11:50:41;10.40;99.90
10678;DHT22;5387;48.722;9.110;2023-04-01T11:53:22;10.20;99.90
10678;DHT22;5387;48.722;9.110;2023-04-01T11:55:59;10.10;99.90
10678;DHT22;5387;48.722;9.110;2023-04-01T11:58:41;10.00;99.90
10678;DHT22;5387;48.722;9.110;2023-04-01T12:01:29;9.90;99.90
10678;DHT22;5387;48.722;9.110;2023-04-01T12:07:19;9.90;99.90
10678;DHT22;5387;48.722;9.110;2023-04-01T12:09:56;10.00;99.90
10678;DHT22;5387;48.722;9.110;2023-04-01T12:12:29;10.00;99.90
10678;DHT22;5387;48.722;9.110;2023-04-01T12:15:08;10.20;99.90
10678;DHT22;5387;48.722;9.110;2023-04-01T12:17:45;9.90;99.90
10678;DHT22;5387;48.722;9.110;2023-04-01T12:20:36;9.90;99.90
10678;DHT22;5387;48.722;9.110;2023-04-01T12:23:14;9.90;99.90
10678;DHT22;5387;48.722;9.110;2023-04-01T12:28:53;9.90;99.90
10678;DHT22;5387;48.722;9.110;2023-04-01T12:31:34;9.80;99.90
10678;DHT22;5387;48.722;9.110;2023-04-01T12:34:26;9.90;99.90
10678;DHT22;5387;48.722;9.110;2023-04-01T12:37:06;10.30;99.90
10678;DHT22;5387;48.722;9.110;2023-04-01T12:39:48;10.40;99.90
10678;DHT22;5387;48.722;9.110;2023-04-01T12:42:35;10.60;99.90
10678;DHT22;5387;48.722;9.110;2023-04-01T12:45:31;11.00;99.90
10678;DHT22;5387;48.722;9.110;2023-04-01T12:48:37;11.20;99.90
10678;DHT22;5387;48.722;9.110;2023-04-01T12:51:35;11.20;99.90
10678;DHT22;5387;48.722;9.110;2023-04-01T13:00:46;11.60;99.90
10678;DHT22;5387;48.722;9.110;2023-04-01T13:03:34;11.30;99.90
10678;DHT22;5387;48.722;9.110;2023-04-01T13:06:49;11.40;99.90
10678;DHT22;5387;48.722;9.110;2023-04-01T13:09:28;11.30;99.90
10678;DHT22;5387;48.722;9.110;2023-04-01T13:12:16;11.40;99.90
10678;DHT22;5387;48.722;9.110;2023-04-01T13:15:04;11.20;99.90
10678;DHT22;5387;48.722;9.110;2023-04-01T13:17:36;11.20;99.90
10678;DHT22;5387;48.722;9.110;2023-04-01T13:20:16;11.10;99.90
10678;DHT22;5387;48.722;9.110;2023-04-01T13:22:56;10.90;99.90
10678;DHT22;5387;48.722;9.110;2023-04-01T13:25:29;10.90;99.90
10678;DHT22;5387;48.722;9.110;2023-04-01T13:28:07;10.90;99.90
10678;DHT22;5387;48.722;9.110;2023-04-01T13:30:45;11.10;99.90
10678;DHT22;5387;48.722;9.110;2023-04-01T13:33:20;10.90;99.90
10678;DHT22;5387;48.722;9.110;2023-04-01T13:36:04;11.00;99.90
10678;DHT22;5387;48.722;9.110;2023-04-01T13:38:56;10.70;99.90
10678;DHT22;5387;48.722;9.110;2023-04-01T13:41:45;10.70;99.90
10678;DHT22;5387;48.722;9.110;2023-04-01T13:44:16;10.70;99.90
10678;DHT22;5387;48.722;9.110;2023-04-01T13:47:02;10.60;99.90
10678;DHT22;5387;48.722;9.110;2023-04-01T13:49:50;10.50;99.90
10678;DHT22;5387;48.722;9.110;2023-04-01T13:52:31;10.40;99.90
10678;DHT22;5387;48.722;9.110;2023-04-01T13:55:23;10.80;99.90
10678;DHT22;5387;48.722;9.110;2023-04-01T13:58:20;10.80;99.90
10678;DHT22;5387;48.722;9.110;2023-04-01T14:00:58;11.00;99.90
10678;DHT22;5387;48.722;9.110;2023-04-01T14:06:28;11.40;99.90
10678;DHT22;5387;48.722;9.110;2023-04-01T14:09:16;11.10;99.90
10678;DHT22;5387;48.722;9.110;2023-04-01T14:11:52;11.10;99.90
10678;DHT22;5387;48.722;9.110;2023-04-01T14:14:31;10.90;99.90
10678;DHT22;5387;48.722;9.110;2023-04-01T14:17:10;11.00;99.90
10678;DHT22;5387;48.722;9.110;2023-04-01T14:20:17;11.00;99.90
10678;DHT22;5387;48.722;9.110;2023-04-01T14:23:02;10.90;99.90
10678;DHT22;5387;48.722;9.110;2023-04-01T14:26:01;10.90;99.90
10678;DHT22;5387;48.722;9.110;2023-04-01T14:28:35;10.60;99.90
10678;DHT22;5387;48.722;9.110;2023-04-01T14:31:27;10.60;99.90
10678;DHT22;5387;48.722;9.110;2023-04-01T14:34:09;10.60;99.90
10678;DHT22;5387;48.722;9.110;2023-04-01T14:36:50;10.70;99.90
10678;DHT22;5387;48.722;9.110;2023-04-01T14:39:33;10.60;99.90
10678;DHT22;5387;48.722;9.110;2023-04-01T14:42:19;10.50;99.90
10678;DHT22;5387;48.722;9.110;2023-04-01T14:45:02;10.50;99.90
10678;DHT22;5387;48.722;9.110;2023-04-01T14:47:46;10.50;99.90
10678;DHT22;5387;48.722;9.110;2023-04-01T14:50:17;10.50;99.90
10678;DHT22;5387;48.722;9.110;2023-04-01T14:52:54;10.60;99.90
10678;DHT22;5387;48.722;9.110;2023-04-01T14:55:29;10.50;99.90
10678;DHT22;5387;48.722;9.110;2023-04-01T14:58:16;10.70;99.90
10678;DHT22;5387;48.722;9.110;2023-04-01T15:00:59;10.70;99.90
10678;DHT22;5387;48.722;9.110;2023-04-01T15:03:30;10.50;99.90
10678;DHT22;5387;48.722;9.110;2023-04-01T15:06:27;10.40;99.90
10678;DHT22;5387;48.722;9.110;2023-04-01T15:09:05;10.40;99.90
10678;DHT22;5387;48.722;9.110;2023-04-01T15:11:44;10.40;99.90
10678;DHT22;5387;48.722;9.110;2023-04-01T15:14:28;10.40;99.90
10678;DHT22;5387;48.722;9.110;2023-04-01T15:17:05;10.30;99.90
10678;DHT22;5387;48.722;9.110;2023-04-01T15:19:55;10.30;99.90
10678;DHT22;5387;48.722;9.110;2023-04-01T15:22:39;10.30;99.90
10678;DHT22;5387;48.722;9.110;2023-04-01T15:25:30;10.50;99.90
10678;DHT22;5387;48.722;9.110;2023-04-01T15:28:08;10.40;99.90
10678;DHT22;5387;48.722;9.110;2023-04-01T15:30:39;10.40;99.90
10678;DHT22;5387;48.722;9.110;2023-04-01T15:33:38;10.50;99.90
10678;DHT22;5387;48.722;9.110;2023-04-01T15:36:16;10.60;99.90
10678;DHT22;5387;48.722;9.110;2023-04-01T15:38:50;10.50;99.90
10678;DHT22;5387;48.722;9.110;2023-04-01T15:41:24;10.60;99.90
10678;DHT22;5387;48.722;9.110;2023-04-01T15:43:55;10.60;99.90
10678;DHT22;5387;48.722;9.110;2023-04-01T15:46:36;10.40;99.90
10678;DHT22;5387;48.722;9.110;2023-04-01T15:49:19;10.30;99.90
10678;DHT22;5387;48.722;9.110;2023-04-01T15:51:58;10.30;99.90
10678;DHT22;5387;48.722;9.110;2023-04-01T15:55:00;10.10;99.90
10678;DHT22;5387;48.722;9.110;2023-04-01T15:57:42;10.30;99.90
10678;DHT22;5387;48.722;9.110;2023-04-01T16:00:23;10.20;99.90
10678;DHT22;5387;48.722;9.110;2023-04-01T16:03:09;10.10;99.90
10678;DHT22;5387;48.722;9.110;2023-04-01T16:05:54;10.00;99.90
10678;DHT22;5387;48.722;9.110;2023-04-01T16:08:46;9.90;99.90
10678;DHT22;5387;48.722;9.110;2023-04-01T16:11:23;9.90;99.90
10678;DHT22;5387;48.722;9.110;2023-04-01T16:14:02;9.90;99.90
10678;DHT22;5387;48.722;9.110;2023-04-01T16:16:44;9.70;99.90
10678;DHT22;5387;48.722;9.110;2023-04-01T16:19:33;9.70;99.90
10678;DHT22;5387;48.722;9.110;2023-04-01T16:22:07;9.60;99.90
10678;DHT22;5387;48.722;9.110;2023-04-01T16:24:38;9.60;99.90
10678;DHT22;5387;48.722;9.110;2023-04-01T16:27:13;9.70;99.90
10678;DHT22;5387;48.722;9.110;2023-04-01T16:29:47;9.60;99.90
10678;DHT22;5387;48.722;9.110;2023-04-01T16:32:27;9.80;99.90
10678;DHT22;5387;48.722;9.110;2023-04-01T16:35:04;9.60;99.90
10678;DHT22;5387;48.722;9.110;2023-04-01T16:37:42;9.70;99.90
10678;DHT22;5387;48.722;9.110;2023-04-01T16:40:16;9.70;99.90
10678;DHT22;5387;48.722;9.110;2023-04-01T16:42:50;9.70;99.90
10678;DHT22;5387;48.722;9.110;2023-04-01T16:45:29;9.80;99.90
10678;DHT22;5387;48.722;9.110;2023-04-01T16:48:00;9.90;99.90
10678;DHT22;5387;48.722;9.110;2023-04-01T16:50:43;9.90;99.90
10678;DHT22;5387;48.722;9.110;2023-04-01T16:53:17;9.80;99.90
10678;DHT22;5387;48.722;9.110;2023-04-01T16:55:49;9.80;99.90
10678;DHT22;5387;48.722;9.110;2023-04-01T16:58:21;9.80;99.90
10678;DHT22;5387;48.722;9.110;2023-04-01T17:00:54;9.80;99.90
10678;DHT22;5387;48.722;9.110;2023-04-01T17:03:26;9.80;99.90
10678;DHT22;5387;48.722;9.110;2023-04-01T17:06:06;9.60;99.90
10678;DHT22;5387;48.722;9.110;2023-04-01T17:08:47;9.60;99.90
10678;DHT22;5387;48.722;9.110;2023-04-01T17:11:19;9.60;99.90
10678;DHT22;5387;48.722;9.110;2023-04-01T17:13:53;9.60;99.90
10678;DHT22;5387;48.722;9.110;2023-04-01T17:16:52;9.60;99.90
10678;DHT22;5387;48.722;9.110;2023-04-01T17:19:32;9.60;99.90
10678;DHT22;5387;48.722;9.110;2023-04-01T17:22:11;9.50;99.90
10678;DHT22;5387;48.722;9.110;2023-04-01T17:24:51;9.50;99.90
10678;DHT22;5387;48.722;9.110;2023-04-01T17:27:29;9.60;99.90
10678;DHT22;5387;48.722;9.110;2023-04-01T17:30:08;9.60;99.90
10678;DHT22;5387;48.722;9.110;2023-04-01T17:32:49;9.40;99.90
10678;DHT22;5387;48.722;9.110;2023-04-01T17:35:24;9.40;99.90
10678;DHT22;5387;48.722;9.110;2023-04-01T17:38:04;9.40;99.90
10678;DHT22;5387;48.722;9.110;2023-04-01T17:40:41;9.40;99.90
10678;DHT22;5387;48.722;9.110;2023-04-01T17:43:17;9.30;99.90
10678;DHT22;5387;48.722;9.110;2023-04-01T17:45:49;9.30;99.90
10678;DHT22;5387;48.722;9.110;2023-04-01T17:48:26;9.20;99.90
10678;DHT22;5387;48.722;9.110;2023-04-01T17:51:16;9.20;99.90